sensor_id;sensor_type;location;lat;lon;timestamp;pressure;altitude;pressure_sealevel;temperature;humidity
59588;BME280;45412;54.472;18.464;2023-07-20T01:04:02;99198.05;;;11.36;100.00
59588;BME280;45412;54.472;18.464;2023-07-20T01:07:01;99206.48;;;11.37;100.00
59588;BME280;45412;54.472;18.464;2023-07-20T01:10:16;99203.70;;;11.38;100.00
59588;BME280;45412;54.472;18.464;2023-07-20T01:13:10;99207.48;;;11.40;100.00
59588;BME280;45412;54.472;18.464;2023-07-20T01:16:01;99210.14;;;11.40;100.00
59588;BME280;45412;54.472;18.464;2023-07-20T01:18:47;99214.05;;;11.41;100.00
59588;BME280;45412;54.472;18.464;2023-07-20T01:21:45;99212.92;;;11.44;100.00
59588;BME280;45412;54.472;18.464;2023-07-20T01:24:56;99216.95;;;11.47;100.00
59588;BME280;45412;54.472;18.464;2023-07-20T01:31:26;99215.09;;;11.51;100.00
59588;BME280;45412;54.472;18.464;2023-07-20T01:34:15;99206.73;;;11.53;100.00
59588;BME280;45412;54.472;18.464;2023-07-20T01:37:05;99208.30;;;11.55;99.96
59588;BME280;45412;54.472;18.464;2023-07-20T01:39:54;99208.44;;;11.57;99.87
59588;BME280;45412;54.472;18.464;2023-07-20T01:42:45;99205.06;;;11.59;99.97
59588;BME280;45412;54.472;18.464;2023-07-20T01:45:32;99209.39;;;11.63;99.93
59588;BME280;45412;54.472;18.464;2023-07-20T01:48:22;99201.58;;;11.66;99.88
59588;BME280;45412;54.472;18.464;2023-07-20T01:51:09;99199.83;;;11.70;99.71
59588;BME280;45412;54.472;18.464;2023-07-20T01:53:55;99195.96;;;11.73;99.64
59588;BME280;45412;54.472;18.464;2023-07-20T01:56:42;99195.64;;;11.76;99.35
59588;BME280;45412;54.472;18.464;2023-07-20T01:59:28;99195.61;;;11.79;99.13
59588;BME280;45412;54.472;18.464;2023-07-20T02:02:15;99191.52;;;11.81;99.00
59588;BME280;45412;54.472;18.464;2023-07-20T02:05:02;99192.72;;;11.79;98.70
59588;BME280;45412;54.472;18.464;2023-07-20T02:07:49;99192.49;;;11.78;98.41
59588;BME280;45412;54.472;18.464;2023-07-20T02:10:37;99195.21;;;11.75;98.36
59588;BME280;45412;54.472;18.464;2023-07-20T02:13:24;99194.70;;;11.75;98.49
59588;BME280;45412;54.472;18.464;2023-07-20T02:16:11;99195.23;;;11.73;98.50
59588;BME280;45412;54.472;18.464;2023-07-20T02:18:57;99192.75;;;11.71;98.38
59588;BME280;45412;54.472;18.464;2023-07-20T02:21:44;99193.15;;;11.71;98.49
59588;BME280;45412;54.472;18.464;2023-07-20T02:24:33;99199.84;;;11.70;98.61
59588;BME280;45412;54.472;18.464;2023-07-20T02:27:19;99201.52;;;11.69;98.64
59588;BME280;45412;54.472;18.464;2023-07-20T02:30:06;99199.05;;;11.69;98.52
59588;BME280;45412;54.472;18.464;2023-07-20T02:32:53;99202.89;;;11.70;98.57
59588;BME280;45412;54.472;18.464;2023-07-20T02:35:40;99198.61;;;11.69;98.61
59588;BME280;45412;54.472;18.464;2023-07-20T02:38:27;99195.57;;;11.70;98.65
59588;BME280;45412;54.472;18.464;2023-07-20T02:41:14;99198.70;;;11.70;98.72
59588;BME280;45412;54.472;18.464;2023-07-20T02:44:00;99196.46;;;11.72;98.72
59588;BME280;45412;54.472;18.464;2023-07-20T02:46:48;99193.61;;;11.72;98.65
59588;BME280;45412;54.472;18.464;2023-07-20T02:49:37;99192.19;;;11.71;98.62
59588;BME280;45412;54.472;18.464;2023-07-20T02:52:23;99188.86;;;11.75;98.86
59588;BME280;45412;54.472;18.464;2023-07-20T02:55:11;99190.42;;;11.77;98.61
59588;BME280;45412;54.472;18.464;2023-07-20T02:57:57;99183.15;;;11.77;98.25
59588;BME280;45412;54.472;18.464;2023-07-20T03:00:43;99185.36;;;11.74;98.16
59588;BME280;45412;54.472;18.464;2023-07-20T03:03:31;99183.15;;;11.73;98.37
59588;BME280;45412;54.472;18.464;2023-07-20T03:06:37;99183.54;;;11.75;98.39
59588;BME280;45412;54.472;18.464;2023-07-20T03:09:23;99186.17;;;11.75;98.29
59588;BME280;45412;54.472;18.464;2023-07-20T03:12:10;99189.59;;;11.77;98.35
59588;BME280;45412;54.472;18.464;2023-07-20T03:14:56;99193.99;;;11.75;98.39
59588;BME280;45412;54.472;18.464;2023-07-20T03:17:43;99191.41;;;11.74;98.40
59588;BME280;45412;54.472;18.464;2023-07-20T03:20:31;99192.04;;;11.75;98.53
59588;BME280;45412;54.472;18.464;2023-07-20T03:23:18;99189.79;;;11.76;98.83
59588;BME280;45412;54.472;18.464;2023-07-20T03:26:05;99192.81;;;11.76;98.50
59588;BME280;45412;54.472;18.464;2023-07-20T03:28:51;99190.38;;;11.79;98.77
59588;BME280;45412;54.472;18.464;2023-07-20T03:31:37;99191.09;;;11.83;98.74
59588;BME280;45412;54.472;18.464;2023-07-20T03:34:24;99196.65;;;11.88;98.81
59588;BME280;45412;54.472;18.464;2023-07-20T03:37:13;99199.58;;;11.93;98.55
59588;BME280;45412;54.472;18.464;2023-07-20T03:40:00;99191.77;;;11.99;98.46
59588;BME280;45412;54.472;18.464;2023-07-20T03:42:46;99190.32;;;12.03;98.26
59588;BME280;45412;54.472;18.464;2023-07-20T03:45:33;99187.44;;;12.08;98.36
59588;BME280;45412;54.472;18.464;2023-07-20T03:48:22;99184.52;;;12.16;98.20
59588;BME280;45412;54.472;18.464;2023-07-20T03:51:09;99185.38;;;12.24;98.01
59588;BME280;45412;54.472;18.464;2023-07-20T03:53:55;99189.58;;;12.36;97.91
59588;BME280;45412;54.472;18.464;2023-07-20T03:56:42;99190.48;;;12.51;97.82
59588;BME280;45412;54.472;18.464;2023-07-20T03:59:28;99192.53;;;12.72;97.62
59588;BME280;45412;54.472;18.464;2023-07-20T04:02:15;99192.86;;;12.92;97.05
59588;BME280;45412;54.472;18.464;2023-07-20T04:05:02;99195.02;;;13.09;96.43
59588;BME280;45412;54.472;18.464;2023-07-20T04:07:49;99190.73;;;13.23;96.18
59588;BME280;45412;54.472;18.464;2023-07-20T04:10:38;99189.16;;;13.38;95.62
59588;BME280;45412;54.472;18.464;2023-07-20T04:13:25;99190.63;;;13.49;95.36
59588;BME280;45412;54.472;18.464;2023-07-20T04:16:11;99193.11;;;13.63;94.83
59588;BME280;45412;54.472;18.464;2023-07-20T04:18:58;99192.02;;;13.77;94.07
59588;BME280;45412;54.472;18.464;2023-07-20T04:21:44;99188.59;;;13.92;93.36
59588;BME280;45412;54.472;18.464;2023-07-20T04:24:31;99191.80;;;14.11;92.73
59588;BME280;45412;54.472;18.464;2023-07-20T04:27:21;99192.02;;;14.24;91.62
59588;BME280;45412;54.472;18.464;2023-07-20T04:30:09;99192.77;;;14.29;90.19
59588;BME280;45412;54.472;18.464;2023-07-20T04:32:56;99195.88;;;14.25;90.27
59588;BME280;45412;54.472;18.464;2023-07-20T04:35:54;99197.63;;;14.25;90.09
59588;BME280;45412;54.472;18.464;2023-07-20T04:38:50;99195.82;;;14.27;90.19
59588;BME280;45412;54.472;18.464;2023-07-20T04:41:39;99198.42;;;14.31;89.55
59588;BME280;45412;54.472;18.464;2023-07-20T04:44:25;99205.10;;;14.34;89.47
59588;BME280;45412;54.472;18.464;2023-07-20T04:47:14;99204.56;;;14.34;89.35
59588;BME280;45412;54.472;18.464;2023-07-20T04:50:03;99204.27;;;14.34;89.74
59588;BME280;45412;54.472;18.464;2023-07-20T04:52:51;99204.81;;;14.30;89.70
59588;BME280;45412;54.472;18.464;2023-07-20T04:55:47;99208.73;;;14.25;89.70
59588;BME280;45412;54.472;18.464;2023-07-20T04:58:39;99211.23;;;14.21;90.28
59588;BME280;45412;54.472;18.464;2023-07-20T05:01:25;99201.58;;;14.17;90.60
59588;BME280;45412;54.472;18.464;2023-07-20T05:04:19;99205.01;;;14.13;90.87
59588;BME280;45412;54.472;18.464;2023-07-20T05:07:09;99205.84;;;14.13;91.26
59588;BME280;45412;54.472;18.464;2023-07-20T05:09:56;99206.91;;;14.13;91.65
59588;BME280;45412;54.472;18.464;2023-07-20T05:12:44;99201.98;;;14.15;92.18
59588;BME280;45412;54.472;18.464;2023-07-20T05:15:33;99205.39;;;14.18;92.25
59588;BME280;45412;54.472;18.464;2023-07-20T05:18:24;99203.39;;;14.20;92.66
59588;BME280;45412;54.472;18.464;2023-07-20T05:21:12;99204.34;;;14.21;93.18
59588;BME280;45412;54.472;18.464;2023-07-20T05:23:58;99201.81;;;14.29;93.65
59588;BME280;45412;54.472;18.464;2023-07-20T05:26:48;99193.79;;;14.44;93.38
59588;BME280;45412;54.472;18.464;2023-07-20T05:29:37;99199.25;;;14.64;92.88
59588;BME280;45412;54.472;18.464;2023-07-20T05:32:24;99206.74;;;14.72;92.01
59588;BME280;45412;54.472;18.464;2023-07-20T05:35:13;99207.67;;;14.72;91.63
59588;BME280;45412;54.472;18.464;2023-07-20T05:38:01;99203.55;;;14.67;91.39
59588;BME280;45412;54.472;18.464;2023-07-20T05:40:48;99204.09;;;14.65;90.88
59588;BME280;45412;54.472;18.464;2023-07-20T05:43:36;99205.00;;;14.72;90.26
59588;BME280;45412;54.472;18.464;2023-07-20T05:46:23;99205.33;;;14.92;90.49
59588;BME280;45412;54.472;18.464;2023-07-20T05:49:11;99212.57;;;15.14;89.01
59588;BME280;45412;54.472;18.464;2023-07-20T05:52:00;99212.27;;;15.44;88.23
59588;BME280;45412;54.472;18.464;2023-07-20T05:54:47;99214.34;;;15.74;87.03
59588;BME280;45412;54.472;18.464;2023-07-20T05:57:34;99205.82;;;16.02;85.84
59588;BME280;45412;54.472;18.464;2023-07-20T06:00:22;99203.35;;;16.14;84.66
59588;BME280;45412;54.472;18.464;2023-07-20T06:03:13;99202.14;;;16.15;83.45
59588;BME280;45412;54.472;18.464;2023-07-20T06:06:08;99202.55;;;16.16;82.14
59588;BME280;45412;54.472;18.464;2023-07-20T06:08:55;99201.63;;;16.15;81.89
59588;BME280;45412;54.472;18.464;2023-07-20T06:11:45;99201.48;;;16.18;81.96
59588;BME280;45412;54.472;18.464;2023-07-20T06:14:39;99202.02;;;16.21;81.96
59588;BME280;45412;54.472;18.464;2023-07-20T06:17:28;99206.11;;;16.21;81.72
59588;BME280;45412;54.472;18.464;2023-07-20T06:20:15;99208.06;;;16.23;81.79
59588;BME280;45412;54.472;18.464;2023-07-20T06:23:02;99204.35;;;16.26;81.86
59588;BME280;45412;54.472;18.464;2023-07-20T06:25:50;99206.17;;;16.24;80.94
59588;BME280;45412;54.472;18.464;2023-07-20T06:28:41;99204.91;;;16.23;80.78
59588;BME280;45412;54.472;18.464;2023-07-20T06:31:28;99202.10;;;16.21;80.84
59588;BME280;45412;54.472;18.464;2023-07-20T06:34:20;99206.02;;;16.10;79.43
59588;BME280;45412;54.472;18.464;2023-07-20T06:37:10;99211.05;;;15.95;79.83
59588;BME280;45412;54.472;18.464;2023-07-20T06:39:57;99209.94;;;15.81;79.63
59588;BME280;45412;54.472;18.464;2023-07-20T06:42:47;99205.55;;;15.80;80.52
59588;BME280;45412;54.472;18.464;2023-07-20T06:45:37;99206.31;;;15.81;80.59
59588;BME280;45412;54.472;18.464;2023-07-20T06:48:24;99203.91;;;15.81;80.57
59588;BME280;45412;54.472;18.464;2023-07-20T06:51:14;99204.30;;;15.84;80.48
59588;BME280;45412;54.472;18.464;2023-07-20T06:54:01;99202.26;;;15.89;79.81
59588;BME280;45412;54.472;18.464;2023-07-20T06:56:51;99201.65;;;15.83;79.19
59588;BME280;45412;54.472;18.464;2023-07-20T06:59:59;99205.86;;;15.69;78.44
59588;BME280;45412;54.472;18.464;2023-07-20T07:02:46;99204.80;;;15.60;79.37
59588;BME280;45412;54.472;18.464;2023-07-20T07:05:37;99205.83;;;15.52;79.79
59588;BME280;45412;54.472;18.464;2023-07-20T07:08:25;99201.88;;;15.49;80.53
59588;BME280;45412;54.472;18.464;2023-07-20T07:11:13;99202.19;;;15.54;80.54
59588;BME280;45412;54.472;18.464;2023-07-20T07:13:59;99194.64;;;15.77;79.69
59588;BME280;45412;54.472;18.464;2023-07-20T07:16:48;99185.75;;;16.16;78.78
59588;BME280;45412;54.472;18.464;2023-07-20T07:19:35;99182.15;;;16.40;78.10
59588;BME280;45412;54.472;18.464;2023-07-20T07:22:25;99187.31;;;16.61;77.02
59588;BME280;45412;54.472;18.464;2023-07-20T07:25:12;99185.05;;;16.99;76.20
59588;BME280;45412;54.472;18.464;2023-07-20T07:27:59;99184.44;;;17.60;74.19
59588;BME280;45412;54.472;18.464;2023-07-20T07:30:46;99177.75;;;18.65;71.37
59588;BME280;45412;54.472;18.464;2023-07-20T07:33:33;99176.75;;;20.20;66.48
59588;BME280;45412;54.472;18.464;2023-07-20T07:36:20;99173.34;;;21.81;60.37
59588;BME280;45412;54.472;18.464;2023-07-20T07:39:07;99167.77;;;23.44;54.41
59588;BME280;45412;54.472;18.464;2023-07-20T07:41:57;99161.71;;;24.74;50.77
59588;BME280;45412;54.472;18.464;2023-07-20T07:44:45;99160.76;;;26.61;44.94
59588;BME280;45412;54.472;18.464;2023-07-20T07:47:31;99158.31;;;27.94;40.31
59588;BME280;45412;54.472;18.464;2023-07-20T07:50:18;99160.61;;;28.34;38.96
59588;BME280;45412;54.472;18.464;2023-07-20T07:53:04;99154.36;;;29.25;36.75
59588;BME280;45412;54.472;18.464;2023-07-20T07:55:51;99158.68;;;28.68;35.43
59588;BME280;45412;54.472;18.464;2023-07-20T07:58:37;99164.20;;;27.59;37.42
59588;BME280;45412;54.472;18.464;2023-07-20T08:01:24;99166.46;;;27.52;38.52
59588;BME280;45412;54.472;18.464;2023-07-20T08:04:11;99159.69;;;28.79;37.15
59588;BME280;45412;54.472;18.464;2023-07-20T08:06:59;99162.21;;;29.91;34.22
59588;BME280;45412;54.472;18.464;2023-07-20T08:09:45;99162.63;;;30.43;32.75
59588;BME280;45412;54.472;18.464;2023-07-20T08:12:32;99157.85;;;30.42;31.27
59588;BME280;45412;54.472;18.464;2023-07-20T08:15:19;99155.12;;;28.94;32.28
59588;BME280;45412;54.472;18.464;2023-07-20T08:18:06;99164.69;;;28.03;34.31
59588;BME280;45412;54.472;18.464;2023-07-20T08:20:55;99168.09;;;27.18;35.90
59588;BME280;45412;54.472;18.464;2023-07-20T08:23:42;99171.33;;;26.55;37.07
59588;BME280;45412;54.472;18.464;2023-07-20T08:26:28;99167.48;;;26.33;38.10
59588;BME280;45412;54.472;18.464;2023-07-20T08:29:15;99165.40;;;26.66;37.50
59588;BME280;45412;54.472;18.464;2023-07-20T08:32:02;99165.73;;;26.81;36.97
59588;BME280;45412;54.472;18.464;2023-07-20T08:34:50;99165.70;;;27.49;37.12
59588;BME280;45412;54.472;18.464;2023-07-20T08:37:37;99166.48;;;28.40;35.46
59588;BME280;45412;54.472;18.464;2023-07-20T08:40:23;99165.34;;;29.23;34.12
59588;BME280;45412;54.472;18.464;2023-07-20T08:43:11;99167.45;;;30.42;32.64
59588;BME280;45412;54.472;18.464;2023-07-20T08:45:58;99170.38;;;31.28;30.97
59588;BME280;45412;54.472;18.464;2023-07-20T08:48:45;99166.44;;;31.01;30.31
59588;BME280;45412;54.472;18.464;2023-07-20T08:51:33;99169.20;;;29.93;31.62
59588;BME280;45412;54.472;18.464;2023-07-20T08:54:21;99168.36;;;29.94;32.76
59588;BME280;45412;54.472;18.464;2023-07-20T08:57:13;99166.00;;;30.90;32.12
59588;BME280;45412;54.472;18.464;2023-07-20T09:00:03;99167.05;;;30.90;31.72
59588;BME280;45412;54.472;18.464;2023-07-20T09:02:57;99167.94;;;30.69;31.80
59588;BME280;45412;54.472;18.464;2023-07-20T09:05:45;99168.02;;;30.48;31.77
59588;BME280;45412;54.472;18.464;2023-07-20T09:08:32;99163.03;;;30.53;31.39
59588;BME280;45412;54.472;18.464;2023-07-20T09:11:19;99167.74;;;30.24;30.92
59588;BME280;45412;54.472;18.464;2023-07-20T09:14:07;99160.42;;;29.14;32.47
59588;BME280;45412;54.472;18.464;2023-07-20T09:16:55;99166.19;;;28.45;33.44
59588;BME280;45412;54.472;18.464;2023-07-20T09:19:48;99164.04;;;28.65;33.42
59588;BME280;45412;54.472;18.464;2023-07-20T09:22:35;99158.46;;;28.85;33.40
59588;BME280;45412;54.472;18.464;2023-07-20T09:25:22;99152.26;;;29.29;32.54
59588;BME280;45412;54.472;18.464;2023-07-20T09:28:10;99157.21;;;30.05;31.73
59588;BME280;45412;54.472;18.464;2023-07-20T09:31:28;99155.73;;;30.80;31.13
59588;BME280;45412;54.472;18.464;2023-07-20T09:34:25;99151.52;;;31.07;29.85
59588;BME280;45412;54.472;18.464;2023-07-20T09:37:23;99147.96;;;30.39;30.19
59588;BME280;45412;54.472;18.464;2023-07-20T09:40:12;99146.91;;;29.56;31.62
59588;BME280;45412;54.472;18.464;2023-07-20T09:43:02;99147.00;;;29.05;32.10
59588;BME280;45412;54.472;18.464;2023-07-20T09:45:58;99144.23;;;28.48;33.16
59588;BME280;45412;54.472;18.464;2023-07-20T09:48:54;99147.46;;;28.25;33.76
59588;BME280;45412;54.472;18.464;2023-07-20T09:51:45;99134.10;;;29.19;32.70
59588;BME280;45412;54.472;18.464;2023-07-20T09:54:32;99127.36;;;29.56;32.00
59588;BME280;45412;54.472;18.464;2023-07-20T09:57:21;99125.30;;;29.95;31.67
59588;BME280;45412;54.472;18.464;2023-07-20T10:00:08;99124.14;;;30.66;30.31
59588;BME280;45412;54.472;18.464;2023-07-20T10:03:04;99124.98;;;30.90;29.09
59588;BME280;45412;54.472;18.464;2023-07-20T10:05:59;99127.89;;;31.51;28.66
59588;BME280;45412;54.472;18.464;2023-07-20T10:08:53;99123.30;;;32.34;27.58
59588;BME280;45412;54.472;18.464;2023-07-20T10:11:50;99118.02;;;33.11;26.64
59588;BME280;45412;54.472;18.464;2023-07-20T10:15:29;99119.79;;;32.99;25.81
59588;BME280;45412;54.472;18.464;2023-07-20T10:18:29;99122.35;;;32.38;26.66
59588;BME280;45412;54.472;18.464;2023-07-20T10:21:17;99112.23;;;31.85;27.66
59588;BME280;45412;54.472;18.464;2023-07-20T10:24:09;99118.99;;;31.46;28.68
59588;BME280;45412;54.472;18.464;2023-07-20T10:26:58;99120.03;;;30.96;28.13
59588;BME280;45412;54.472;18.464;2023-07-20T10:29:45;99123.11;;;30.42;28.46
59588;BME280;45412;54.472;18.464;2023-07-20T10:32:33;99124.34;;;30.70;28.71
59588;BME280;45412;54.472;18.464;2023-07-20T10:35:20;99124.27;;;31.03;27.73
59588;BME280;45412;54.472;18.464;2023-07-20T10:38:06;99127.50;;;30.52;27.25
59588;BME280;45412;54.472;18.464;2023-07-20T10:40:56;99125.42;;;29.45;28.73
59588;BME280;45412;54.472;18.464;2023-07-20T10:43:44;99131.04;;;28.53;30.98
59588;BME280;45412;54.472;18.464;2023-07-20T10:46:44;99135.45;;;27.58;31.97
59588;BME280;45412;54.472;18.464;2023-07-20T10:49:34;99135.50;;;26.60;33.10
59588;BME280;45412;54.472;18.464;2023-07-20T10:52:21;99138.64;;;25.66;34.45
59588;BME280;45412;54.472;18.464;2023-07-20T10:55:17;99141.46;;;24.92;36.20
59588;BME280;45412;54.472;18.464;2023-07-20T10:58:13;99150.71;;;24.14;38.11
59588;BME280;45412;54.472;18.464;2023-07-20T11:01:03;99159.45;;;23.24;41.59
59588;BME280;45412;54.472;18.464;2023-07-20T11:03:58;99158.67;;;22.37;44.81
59588;BME280;45412;54.472;18.464;2023-07-20T11:06:55;99167.16;;;21.77;48.03
59588;BME280;45412;54.472;18.464;2023-07-20T11:09:44;99174.64;;;21.10;51.81
59588;BME280;45412;54.472;18.464;2023-07-20T11:12:35;99175.57;;;20.49;55.51
59588;BME280;45412;54.472;18.464;2023-07-20T11:15:21;99188.50;;;20.04;58.47
59588;BME280;45412;54.472;18.464;2023-07-20T11:18:12;99190.41;;;19.62;60.91
59588;BME280;45412;54.472;18.464;2023-07-20T11:20:59;99190.98;;;19.22;63.18
59588;BME280;45412;54.472;18.464;2023-07-20T11:23:47;99195.30;;;18.85;64.92
59588;BME280;45412;54.472;18.464;2023-07-20T11:26:45;99194.71;;;18.46;66.78
59588;BME280;45412;54.472;18.464;2023-07-20T11:29:32;99195.11;;;18.17;67.87
59588;BME280;45412;54.472;18.464;2023-07-20T11:32:23;99188.47;;;18.09;68.15
59588;BME280;45412;54.472;18.464;2023-07-20T11:35:13;99186.17;;;18.14;68.16
59588;BME280;45412;54.472;18.464;2023-07-20T11:38:01;99186.58;;;18.40;67.78
59588;BME280;45412;54.472;18.464;2023-07-20T11:40:50;99188.10;;;18.67;67.07
59588;BME280;45412;54.472;18.464;2023-07-20T11:43:41;99196.03;;;18.88;65.93
59588;BME280;45412;54.472;18.464;2023-07-20T11:46:29;99198.22;;;19.01;65.55
59588;BME280;45412;54.472;18.464;2023-07-20T11:49:17;99192.80;;;19.11;65.07
59588;BME280;45412;54.472;18.464;2023-07-20T11:52:11;99195.48;;;19.19;63.63
59588;BME280;45412;54.472;18.464;2023-07-20T11:55:00;99194.92;;;19.55;61.93
59588;BME280;45412;54.472;18.464;2023-07-20T11:58:05;99194.91;;;19.98;60.24
59588;BME280;45412;54.472;18.464;2023-07-20T12:00:55;99185.61;;;20.43;57.89
59588;BME280;45412;54.472;18.464;2023-07-20T12:03:43;99185.13;;;20.69;56.11
59588;BME280;45412;54.472;18.464;2023-07-20T12:06:31;99186.02;;;20.82;52.89
59588;BME280;45412;54.472;18.464;2023-07-20T12:09:18;99179.29;;;20.92;53.23
59588;BME280;45412;54.472;18.464;2023-07-20T12:12:11;99177.23;;;21.04;52.85
59588;BME280;45412;54.472;18.464;2023-07-20T12:15:16;99177.10;;;21.12;50.94
59588;BME280;45412;54.472;18.464;2023-07-20T12:18:03;99177.48;;;21.34;50.33
59588;BME280;45412;54.472;18.464;2023-07-20T12:20:59;99178.81;;;21.35;47.62
59588;BME280;45412;54.472;18.464;2023-07-20T12:23:46;99176.18;;;21.39;47.93
59588;BME280;45412;54.472;18.464;2023-07-20T12:26:33;99177.26;;;21.49;47.48
59588;BME280;45412;54.472;18.464;2023-07-20T12:29:20;99171.81;;;21.67;47.26
59588;BME280;45412;54.472;18.464;2023-07-20T12:32:06;99165.03;;;21.78;46.69
59588;BME280;45412;54.472;18.464;2023-07-20T12:34:53;99164.69;;;21.80;46.76
59588;BME280;45412;54.472;18.464;2023-07-20T12:37:40;99159.89;;;21.98;46.56
59588;BME280;45412;54.472;18.464;2023-07-20T12:40:27;99150.33;;;21.94;46.30
59588;BME280;45412;54.472;18.464;2023-07-20T12:43:14;99149.69;;;21.79;46.47
59588;BME280;45412;54.472;18.464;2023-07-20T12:46:00;99150.72;;;21.60;46.59
59588;BME280;45412;54.472;18.464;2023-07-20T12:48:47;99149.27;;;21.47;46.20
59588;BME280;45412;54.472;18.464;2023-07-20T12:51:35;99146.65;;;21.46;45.81
59588;BME280;45412;54.472;18.464;2023-07-20T12:54:22;99143.65;;;21.46;45.86
59588;BME280;45412;54.472;18.464;2023-07-20T12:57:09;99139.10;;;21.50;45.99
59588;BME280;45412;54.472;18.464;2023-07-20T12:59:58;99146.95;;;21.52;46.38
59588;BME280;45412;54.472;18.464;2023-07-20T13:02:45;99142.95;;;21.45;45.71
59588;BME280;45412;54.472;18.464;2023-07-20T13:05:33;99145.23;;;21.33;45.41
59588;BME280;45412;54.472;18.464;2023-07-20T13:08:22;99151.36;;;21.28;46.38
59588;BME280;45412;54.472;18.464;2023-07-20T13:11:12;99143.09;;;21.23;46.75
59588;BME280;45412;54.472;18.464;2023-07-20T13:13:58;99141.81;;;21.18;47.02
59588;BME280;45412;54.472;18.464;2023-07-20T13:16:46;99143.84;;;20.98;47.06
59588;BME280;45412;54.472;18.464;2023-07-20T13:19:33;99146.38;;;20.76;47.04
59588;BME280;45412;54.472;18.464;2023-07-20T13:22:20;99153.52;;;20.77;47.03
59588;BME280;45412;54.472;18.464;2023-07-20T13:25:08;99172.30;;;20.77;47.28
59588;BME280;45412;54.472;18.464;2023-07-20T13:27:54;99191.52;;;20.31;48.75
59588;BME280;45412;54.472;18.464;2023-07-20T13:30:41;99210.83;;;19.68;55.03
59588;BME280;45412;54.472;18.464;2023-07-20T13:33:27;99209.30;;;18.92;59.37
59588;BME280;45412;54.472;18.464;2023-07-20T13:36:15;99206.90;;;18.24;61.26
59588;BME280;45412;54.472;18.464;2023-07-20T13:39:02;99204.49;;;17.78;62.52
59588;BME280;45412;54.472;18.464;2023-07-20T13:41:51;99203.33;;;17.64;63.78
59588;BME280;45412;54.472;18.464;2023-07-20T13:44:37;99203.09;;;17.72;64.94
59588;BME280;45412;54.472;18.464;2023-07-20T13:47:24;99202.45;;;18.04;67.57
59588;BME280;45412;54.472;18.464;2023-07-20T13:50:14;99202.00;;;18.38;67.24
59588;BME280;45412;54.472;18.464;2023-07-20T13:53:06;99199.77;;;18.58;66.06
59588;BME280;45412;54.472;18.464;2023-07-20T13:55:56;99196.60;;;18.70;66.03
59588;BME280;45412;54.472;18.464;2023-07-20T13:58:46;99202.55;;;18.78;65.96
59588;BME280;45412;54.472;18.464;2023-07-20T14:01:33;99202.71;;;18.81;66.77
59588;BME280;45412;54.472;18.464;2023-07-20T14:04:24;99193.09;;;18.81;66.87
59588;BME280;45412;54.472;18.464;2023-07-20T14:07:13;99195.61;;;18.81;66.62
59588;BME280;45412;54.472;18.464;2023-07-20T14:10:04;99196.14;;;18.80;67.58
59588;BME280;45412;54.472;18.464;2023-07-20T14:12:56;99194.81;;;18.84;66.88
59588;BME280;45412;54.472;18.464;2023-07-20T14:15:42;99193.08;;;18.87;65.80
59588;BME280;45412;54.472;18.464;2023-07-20T14:18:29;99193.76;;;18.92;65.09
59588;BME280;45412;54.472;18.464;2023-07-20T14:21:19;99195.11;;;18.97;64.62
59588;BME280;45412;54.472;18.464;2023-07-20T14:24:07;99194.73;;;19.06;65.07
59588;BME280;45412;54.472;18.464;2023-07-20T14:26:56;99195.54;;;19.26;65.68
59588;BME280;45412;54.472;18.464;2023-07-20T14:29:46;99197.39;;;19.43;66.11
59588;BME280;45412;54.472;18.464;2023-07-20T14:32:33;99196.23;;;19.42;64.66
59588;BME280;45412;54.472;18.464;2023-07-20T14:35:20;99197.41;;;19.38;63.47
59588;BME280;45412;54.472;18.464;2023-07-20T14:38:09;99198.86;;;19.27;63.29
59588;BME280;45412;54.472;18.464;2023-07-20T14:40:57;99198.15;;;19.32;63.45
59588;BME280;45412;54.472;18.464;2023-07-20T14:43:43;99197.86;;;19.52;61.48
59588;BME280;45412;54.472;18.464;2023-07-20T14:46:33;99197.96;;;19.49;60.68
59588;BME280;45412;54.472;18.464;2023-07-20T14:49:20;99191.88;;;19.53;60.08
59588;BME280;45412;54.472;18.464;2023-07-20T14:52:08;99192.42;;;19.59;59.46
59588;BME280;45412;54.472;18.464;2023-07-20T14:54:57;99188.21;;;19.65;56.62
59588;BME280;45412;54.472;18.464;2023-07-20T14:57:46;99189.34;;;19.73;55.22
59588;BME280;45412;54.472;18.464;2023-07-20T15:00:34;99188.27;;;19.80;53.36
59588;BME280;45412;54.472;18.464;2023-07-20T15:03:21;99183.67;;;19.89;52.16
59588;BME280;45412;54.472;18.464;2023-07-20T15:06:11;99182.73;;;19.92;51.17
59588;BME280;45412;54.472;18.464;2023-07-20T15:08:58;99187.66;;;19.99;50.22
59588;BME280;45412;54.472;18.464;2023-07-20T15:11:44;99186.35;;;20.07;49.29
59588;BME280;45412;54.472;18.464;2023-07-20T15:14:31;99185.33;;;20.14;48.63
59588;BME280;45412;54.472;18.464;2023-07-20T15:17:17;99181.87;;;20.25;48.56
59588;BME280;45412;54.472;18.464;2023-07-20T15:20:09;99183.27;;;20.33;47.93
59588;BME280;45412;54.472;18.464;2023-07-20T15:22:59;99187.57;;;20.40;47.05
59588;BME280;45412;54.472;18.464;2023-07-20T15:25:47;99190.48;;;20.47;46.68
59588;BME280;45412;54.472;18.464;2023-07-20T15:28:35;99192.54;;;20.52;45.21
59588;BME280;45412;54.472;18.464;2023-07-20T15:31:23;99188.41;;;20.53;44.28
59588;BME280;45412;54.472;18.464;2023-07-20T15:34:30;99194.04;;;20.62;44.89
59588;BME280;45412;54.472;18.464;2023-07-20T15:37:17;99193.73;;;20.68;44.28
59588;BME280;45412;54.472;18.464;2023-07-20T15:40:05;99196.13;;;20.72;44.23
59588;BME280;45412;54.472;18.464;2023-07-20T15:42:52;99194.37;;;20.59;43.46
59588;BME280;45412;54.472;18.464;2023-07-20T15:45:40;99204.27;;;20.24;43.78
59588;BME280;45412;54.472;18.464;2023-07-20T15:48:29;99206.88;;;19.98;44.45
59588;BME280;45412;54.472;18.464;2023-07-20T15:51:16;99208.44;;;19.93;44.96